createdAt,value
2019-01-25T00:02:44.315Z,97962.86
2019-01-25T00:05:48.764Z,97962.34
2019-01-25T00:08:53.202Z,97963.16
2019-01-25T00:11:57.947Z,97961.53
2019-01-25T00:15:02.404Z,97966.39
2019-01-25T00:18:07.504Z,97965.98
2019-01-25T00:21:11.953Z,97965.87
2019-01-25T00:24:16.391Z,97973.55
2019-01-25T00:27:20.907Z,97968.02
2019-01-25T00:30:25.424Z,97968.70
2019-01-25T00:33:29.891Z,97976.41
2019-01-25T00:36:34.345Z,97975.91
2019-01-25T00:39:39.197Z,97978.03
2019-01-25T00:42:43.937Z,97983.28
2019-01-25T00:45:48.396Z,97979.92
2019-01-25T00:48:52.859Z,97978.22
2019-01-25T00:51:57.323Z,97986.84
2019-01-25T00:55:01.775Z,97978.94
2019-01-25T00:58:06.873Z,97977.63
2019-01-25T01:01:11.706Z,97982.38
2019-01-25T01:04:16.436Z,97973.87
2019-01-25T01:07:20.967Z,97977.72
2019-01-25T01:10:25.700Z,97981.97
2019-01-25T01:13:30.149Z,97981.77
2019-01-25T01:16:34.976Z,97992.48
2019-01-25T01:19:39.394Z,97986.41
2019-01-25T01:22:43.849Z,97989.33
2019-01-25T01:25:48.737Z,97991.78
2019-01-25T01:28:53.453Z,97991.87
2019-01-25T01:31:57.912Z,97986.53
2019-01-25T01:35:02.610Z,97996.31
2019-01-25T01:38:07.407Z,97996.61
2019-01-25T01:41:11.874Z,98001.73
2019-01-25T01:44:16.316Z,98000.06
2019-01-25T01:47:21.017Z,98002.34
2019-01-25T01:50:25.466Z,98009.81
2019-01-25T01:53:29.926Z,98012.33
2019-01-25T01:56:34.413Z,98011.88
2019-01-25T01:59:39.120Z,98012.34
2019-01-25T02:02:43.592Z,98014.77
2019-01-25T02:05:48.031Z,98011.59
2019-01-25T02:08:52.796Z,98006.69
2019-01-25T02:11:57.270Z,98004.12
2019-01-25T02:15:01.709Z,98006.05
2019-01-25T02:18:06.335Z,98003.13
2019-01-25T02:21:11.208Z,98001.64
2019-01-25T02:24:15.940Z,98008.20
2019-01-25T02:27:20.401Z,98000.93
2019-01-25T02:30:26.608Z,98004.84
2019-01-25T02:33:31.052Z,98001.78
2019-01-25T02:36:35.512Z,98008.97
2019-01-25T02:39:39.956Z,98010.69
2019-01-25T02:42:44.574Z,98008.47
2019-01-25T02:45:49.361Z,98011.09
2019-01-25T02:48:54.042Z,98006.59
2019-01-25T02:51:58.842Z,98004.75
2019-01-25T02:55:03.284Z,98004.44
2019-01-25T02:58:07.833Z,98000.32
2019-01-25T03:01:12.243Z,98008.67
2019-01-25T03:04:16.688Z,98009.83
2019-01-25T03:07:21.449Z,98011.56
2019-01-25T03:10:28.931Z,98014.09
2019-01-25T03:13:32.337Z,98016.41
2019-01-25T03:16:37.082Z,98021.98
2019-01-25T03:19:41.521Z,98017.08
2019-01-25T03:22:46.015Z,98015.94
2019-01-25T03:25:50.463Z,98015.59
2019-01-25T03:28:54.912Z,98025.86
2019-01-25T03:31:59.366Z,98029.40
2019-01-25T03:35:05.246Z,98034.13
2019-01-25T03:38:09.695Z,98034.13
2019-01-25T03:41:14.521Z,98033.30
2019-01-25T03:44:18.984Z,98028.83
2019-01-25T03:47:23.439Z,98028.72
2019-01-25T03:50:30.287Z,98023.95
2019-01-25T03:53:34.736Z,98031.82
2019-01-25T03:56:39.210Z,98032.27
2019-01-25T03:59:43.662Z,98032.61
2019-01-25T04:02:48.460Z,98039.42
2019-01-25T04:05:52.884Z,98040.84
2019-01-25T04:08:57.342Z,98041.42
2019-01-25T04:12:02.124Z,98042.84
2019-01-25T04:15:13.841Z,98044.65
2019-01-25T04:18:18.290Z,98045.62
2019-01-25T04:21:22.730Z,98053.03
2019-01-25T04:24:27.180Z,98054.97
2019-01-25T04:27:31.926Z,98056.11
2019-01-25T04:30:36.692Z,98059.41
2019-01-25T04:33:41.385Z,98060.14
2019-01-25T04:36:45.826Z,98063.59
2019-01-25T04:39:50.284Z,98062.63
2019-01-25T04:42:54.909Z,98064.65
2019-01-25T04:45:59.348Z,98063.69
2019-01-25T04:49:04.126Z,98064.08
2019-01-25T04:52:13.403Z,98065.20
2019-01-25T04:55:32.765Z,98060.97
2019-01-25T04:58:37.196Z,98060.05
2019-01-25T05:01:41.637Z,98056.75
2019-01-25T05:04:46.086Z,98058.87
2019-01-25T05:07:50.537Z,98060.86
2019-01-25T05:10:55.255Z,98066.66
2019-01-25T05:13:59.716Z,98063.22
2019-01-25T05:17:04.279Z,98061.16
2019-01-25T05:20:09.571Z,98069.28
2019-01-25T05:23:14.287Z,98066.86
2019-01-25T05:26:18.867Z,98077.83
2019-01-25T05:29:26.191Z,98075.73
2019-01-25T05:32:30.929Z,98081.14
2019-01-25T05:35:37.417Z,98074.89
2019-01-25T05:38:46.196Z,98082.98
2019-01-25T05:41:52.909Z,98087.11
2019-01-25T05:44:57.640Z,98085.40
2019-01-25T05:48:02.375Z,98084.45
2019-01-25T05:51:07.357Z,98090.81
2019-01-25T05:54:11.851Z,98087.77
2019-01-25T05:57:16.293Z,98090.58
2019-01-25T06:00:25.623Z,98090.36
2019-01-25T06:03:30.067Z,98096.06
2019-01-25T06:06:34.512Z,98092.62
2019-01-25T06:09:39.284Z,98085.41
2019-01-25T06:12:43.735Z,98086.45
2019-01-25T06:15:48.187Z,98087.70
2019-01-25T06:18:52.632Z,98090.53
2019-01-25T06:21:57.901Z,98089.99
2019-01-25T06:25:02.358Z,98092.80
2019-01-25T06:28:07.968Z,98101.16
2019-01-25T06:31:14.540Z,98102.69
2019-01-25T06:34:18.994Z,98105.03
2019-01-25T06:37:23.694Z,98103.70
2019-01-25T06:40:28.424Z,98107.50
2019-01-25T06:43:32.864Z,98113.80
2019-01-25T06:46:37.323Z,98120.42
2019-01-25T06:49:41.775Z,98121.34
2019-01-25T06:52:46.523Z,98126.19
2019-01-25T06:55:50.969Z,98134.16
2019-01-25T06:58:57.315Z,98136.32
2019-01-25T07:02:03.638Z,98140.13
2019-01-25T07:05:09.494Z,98144.73
2019-01-25T07:08:15.912Z,98144.42
2019-01-25T07:11:20.356Z,98152.53
2019-01-25T07:14:24.815Z,98154.86
2019-01-25T07:17:29.263Z,98161.16
2019-01-25T07:20:33.710Z,98168.84
2019-01-25T07:23:38.440Z,98166.33
2019-01-25T07:26:42.893Z,98163.60
2019-01-25T07:29:47.598Z,98166.27
2019-01-25T07:32:52.111Z,98173.05
2019-01-25T07:35:56.959Z,98173.55
2019-01-25T07:39:04.832Z,98171.64
2019-01-25T07:42:09.619Z,98180.46
2019-01-25T07:45:15.504Z,98180.47
2019-01-25T07:48:20.155Z,98187.00
2019-01-25T07:51:24.914Z,98181.25
2019-01-25T07:54:29.762Z,98177.02
2019-01-25T07:57:34.680Z,98177.46
2019-01-25T08:00:39.156Z,98176.27
2019-01-25T08:03:43.829Z,98176.08
2019-01-25T08:06:48.286Z,98188.94
2019-01-25T08:09:52.985Z,98187.64
2019-01-25T08:12:57.486Z,98186.14
2019-01-25T08:16:03.124Z,98187.48
2019-01-25T08:19:07.582Z,98187.03
2019-01-25T08:22:12.445Z,98185.91
2019-01-25T08:25:17.457Z,98185.80
2019-01-25T08:28:22.192Z,98185.99
2019-01-25T08:31:26.646Z,98181.16
2019-01-25T08:34:31.341Z,98183.38
2019-01-25T08:37:35.800Z,98178.95
2019-01-25T08:40:41.964Z,98191.74
2019-01-25T08:43:46.581Z,98193.77
2019-01-25T08:46:50.986Z,98194.64
2019-01-25T08:49:57.874Z,98200.56
2019-01-25T08:53:01.932Z,98199.56
2019-01-25T08:56:06.406Z,98205.05
2019-01-25T08:59:10.884Z,98200.89
2019-01-25T09:02:15.296Z,98199.19
2019-01-25T09:05:20.474Z,98200.00
2019-01-25T09:08:24.928Z,98193.13
2019-01-25T09:11:29.374Z,98194.20
2019-01-25T09:14:33.824Z,98206.95
2019-01-25T09:17:38.279Z,98209.41
2019-01-25T09:20:42.727Z,98195.92
2019-01-25T09:23:47.445Z,98195.48
2019-01-25T09:26:51.891Z,98200.95
2019-01-25T09:29:56.326Z,98197.53
2019-01-25T09:33:00.775Z,98197.87
2019-01-25T09:36:05.334Z,98184.31
2019-01-25T09:39:10.021Z,98187.74
2019-01-25T09:42:14.699Z,98189.06
2019-01-25T09:45:19.133Z,98196.44
2019-01-25T09:48:23.857Z,98196.25
2019-01-25T09:51:28.287Z,98191.92
2019-01-25T09:54:33.011Z,98204.67
2019-01-25T09:57:37.741Z,98208.77
2019-01-25T10:00:56.701Z,98211.74
2019-01-25T10:04:01.141Z,98215.70
2019-01-25T10:07:05.738Z,98206.96
2019-01-25T10:10:11.127Z,98210.30
2019-01-25T10:13:15.570Z,98218.77
2019-01-25T10:16:20.011Z,98217.84
2019-01-25T10:19:24.779Z,98218.86
2019-01-25T10:22:29.224Z,98217.09
2019-01-25T10:25:33.656Z,98223.98
2019-01-25T10:28:38.357Z,98218.37
2019-01-25T10:31:42.797Z,98227.66
2019-01-25T10:34:47.510Z,98230.16
2019-01-25T10:37:53.157Z,98225.79
2019-01-25T10:40:57.587Z,98226.12
2019-01-25T10:44:02.045Z,98221.73
2019-01-25T10:47:06.750Z,98218.30
2019-01-25T10:50:11.678Z,98225.41
2019-01-25T10:53:16.125Z,98219.78
2019-01-25T10:56:20.556Z,98229.80
2019-01-25T10:59:25.257Z,98220.95
2019-01-25T11:02:29.684Z,98211.43
2019-01-25T11:05:34.196Z,98212.32
2019-01-25T11:08:38.939Z,98206.48
2019-01-25T11:11:43.380Z,98193.48
2019-01-25T11:14:47.824Z,98191.98
2019-01-25T11:17:52.431Z,98193.89
2019-01-25T11:20:56.872Z,98194.63
2019-01-25T11:24:01.570Z,98191.38
2019-01-25T11:27:06.302Z,98183.73
2019-01-25T11:30:15.464Z,98192.61
2019-01-25T11:33:19.896Z,98187.50
2019-01-25T11:36:24.336Z,98179.76
2019-01-25T11:39:29.120Z,98177.75
2019-01-25T11:42:33.553Z,98187.48
2019-01-25T11:45:38.069Z,98186.68
2019-01-25T11:48:42.508Z,98183.75
2019-01-25T11:51:47.218Z,98188.58
2019-01-25T11:54:51.660Z,98179.11
2019-01-25T11:57:56.375Z,98182.83
2019-01-25T12:01:00.818Z,98183.72
2019-01-25T12:04:07.578Z,98182.41
2019-01-25T12:07:12.003Z,98187.42
2019-01-25T12:10:20.624Z,98192.36
2019-01-25T12:13:25.508Z,98194.95
2019-01-25T12:16:30.198Z,98191.10
2019-01-25T12:19:34.666Z,98192.51
2019-01-25T12:22:39.528Z,98192.56
2019-01-25T12:25:44.072Z,98188.93
2019-01-25T12:28:49.104Z,98191.08
2019-01-25T12:31:53.626Z,98188.83
2019-01-25T12:34:58.071Z,98188.55
2019-01-25T12:38:02.785Z,98189.88
2019-01-25T12:41:07.637Z,98196.83
2019-01-25T12:44:12.057Z,98196.06
2019-01-25T12:47:16.771Z,98199.98
2019-01-25T12:50:28.442Z,98198.46
2019-01-25T12:53:34.320Z,98196.27
2019-01-25T12:56:39.050Z,98203.98
2019-01-25T12:59:43.785Z,98205.64
2019-01-25T13:02:48.219Z,98204.52
2019-01-25T13:05:52.798Z,98215.48
2019-01-25T13:08:57.234Z,98214.08
2019-01-25T13:12:01.668Z,98216.08
2019-01-25T13:15:09.328Z,98215.97
2019-01-25T13:18:13.928Z,98211.74
2019-01-25T13:21:18.373Z,98207.78
2019-01-25T13:24:22.809Z,98209.97
2019-01-25T13:27:27.241Z,98202.73
2019-01-25T13:30:32.619Z,98199.02
2019-01-25T13:33:37.464Z,98188.41
2019-01-25T13:36:41.902Z,98192.75
2019-01-25T13:39:46.351Z,98190.69
2019-01-25T13:42:50.781Z,98176.20
2019-01-25T13:45:55.219Z,98179.50
2019-01-25T13:48:59.650Z,98185.42
2019-01-25T13:52:04.092Z,98193.68
2019-01-25T13:55:12.061Z,98198.83
2019-01-25T13:58:16.491Z,98195.23
2019-01-25T14:01:21.269Z,98184.73
2019-01-25T14:04:25.711Z,98191.57
2019-01-25T14:07:30.433Z,98195.31
2019-01-25T14:10:36.985Z,98194.28
2019-01-25T14:13:46.686Z,98200.38
2019-01-25T14:16:47.890Z,98202.16
2019-01-25T14:19:52.619Z,98207.37
2019-01-25T14:22:57.049Z,98209.11
2019-01-25T14:26:01.492Z,98207.36
2019-01-25T14:29:07.165Z,98206.41
2019-01-25T14:32:11.672Z,98216.00
2019-01-25T14:35:16.119Z,98216.96
2019-01-25T14:38:20.805Z,98220.56
2019-01-25T14:41:25.250Z,98218.05
2019-01-25T14:44:29.958Z,98220.92
2019-01-25T14:47:34.408Z,98222.30
2019-01-25T14:50:39.109Z,98227.98
2019-01-25T14:53:43.841Z,98225.00
2019-01-25T14:56:48.580Z,98225.69
2019-01-25T14:59:53.305Z,98228.13
2019-01-25T15:02:57.754Z,98222.81
2019-01-25T15:06:02.194Z,98227.12
2019-01-25T15:09:09.508Z,98228.68
2019-01-25T15:12:13.953Z,98234.20
2019-01-25T15:15:18.379Z,98231.06
2019-01-25T15:18:23.120Z,98225.83
2019-01-25T15:21:27.564Z,98228.48
2019-01-25T15:24:31.998Z,98225.23
2019-01-25T15:27:36.695Z,98222.76
2019-01-25T15:30:41.142Z,98223.82
2019-01-25T15:33:45.852Z,98227.75
2019-01-25T15:36:50.285Z,98226.19
2019-01-25T15:39:54.874Z,98225.42
2019-01-25T15:42:59.317Z,98214.78
2019-01-25T15:46:03.755Z,98223.94
2019-01-25T15:49:08.188Z,98218.39
2019-01-25T15:52:12.908Z,98220.56
2019-01-25T15:55:18.373Z,98223.54
2019-01-25T15:58:23.084Z,98228.44
2019-01-25T16:01:27.819Z,98232.18
2019-01-25T16:04:34.939Z,98238.56
2019-01-25T16:07:39.022Z,98232.50
2019-01-25T16:10:43.746Z,98225.26
2019-01-25T16:13:49.831Z,98239.42
2019-01-25T16:16:54.743Z,98253.45
2019-01-25T16:19:59.173Z,98253.48
2019-01-25T16:23:03.681Z,98253.53
2019-01-25T16:26:08.424Z,98251.53
2019-01-25T16:29:12.861Z,98251.66
2019-01-25T16:32:17.580Z,98252.62
2019-01-25T16:35:22.317Z,98258.25
2019-01-25T16:38:27.037Z,98260.36
2019-01-25T16:41:31.782Z,98255.48
2019-01-25T16:44:36.369Z,98248.29
2019-01-25T16:47:41.235Z,98259.30
2019-01-25T16:50:45.675Z,98255.02
2019-01-25T16:53:50.118Z,98244.17
2019-01-25T16:56:54.893Z,98241.18
2019-01-25T16:59:59.648Z,98242.72
2019-01-25T17:03:04.498Z,98241.77
2019-01-25T17:06:09.096Z,98246.10
2019-01-25T17:09:13.842Z,98252.48
2019-01-25T17:12:18.273Z,98243.72
2019-01-25T17:15:22.991Z,98239.17
2019-01-25T17:18:27.719Z,98239.95
2019-01-25T17:21:32.153Z,98247.41
2019-01-25T17:24:37.246Z,98251.00
2019-01-25T17:27:41.912Z,98253.70
2019-01-25T17:30:46.648Z,98255.40
2019-01-25T17:33:51.101Z,98257.63
2019-01-25T17:36:55.616Z,98270.33
2019-01-25T17:40:00.451Z,98257.84
2019-01-25T17:43:05.446Z,98264.95
2019-01-25T17:46:10.201Z,98261.08
2019-01-25T17:49:14.773Z,98250.44
2019-01-25T17:52:19.658Z,98245.00
2019-01-25T17:55:24.287Z,98240.00
2019-01-25T17:58:28.915Z,98237.20
2019-01-25T18:01:33.351Z,98247.44
2019-01-25T18:04:38.005Z,98255.27
2019-01-25T18:07:44.239Z,98248.76
2019-01-25T18:10:49.147Z,98252.94
2019-01-25T18:13:53.555Z,98259.17
2019-01-25T18:16:58.633Z,98261.84
2019-01-25T18:20:03.255Z,98251.18
2019-01-25T18:23:07.674Z,98250.67
2019-01-25T18:26:12.186Z,98245.27
2019-01-25T18:29:17.047Z,98251.55
2019-01-25T18:32:21.840Z,98262.13
2019-01-25T18:35:26.299Z,98260.52
2019-01-25T18:38:31.028Z,98271.47
2019-01-25T18:41:35.505Z,98273.04
2019-01-25T18:44:39.936Z,98265.37
2019-01-25T18:47:44.435Z,98258.00
2019-01-25T18:50:49.134Z,98248.28
2019-01-25T18:53:53.868Z,98250.57
2019-01-25T18:56:58.702Z,98244.69
2019-01-25T19:00:03.422Z,98239.84
2019-01-25T19:03:08.146Z,98241.30
2019-01-25T19:06:12.889Z,98251.14
2019-01-25T19:09:17.563Z,98242.12
2019-01-25T19:12:22.509Z,98235.08
2019-01-25T19:15:30.767Z,98224.94
2019-01-25T19:18:35.515Z,98213.91
2019-01-25T19:21:39.956Z,98218.11
2019-01-25T19:24:44.397Z,98216.16
2019-01-25T19:27:48.951Z,98208.00
2019-01-25T19:30:54.429Z,98202.84
2019-01-25T19:33:58.851Z,98204.55
2019-01-25T19:37:03.299Z,98211.19
2019-01-25T19:40:30.428Z,98207.03
2019-01-25T19:43:34.864Z,98199.98
2019-01-25T19:46:39.306Z,98203.81
2019-01-25T19:49:44.007Z,98211.98
2019-01-25T19:52:48.734Z,98212.42
2019-01-25T19:55:53.167Z,98208.95
2019-01-25T19:58:57.603Z,98208.99
2019-01-25T20:02:02.314Z,98211.00
2019-01-25T20:05:11.838Z,98209.63
2019-01-25T20:08:16.346Z,98214.23
2019-01-25T20:11:21.105Z,98224.13
2019-01-25T20:14:27.439Z,98231.55
2019-01-25T20:17:32.205Z,98226.05
2019-01-25T20:20:39.811Z,98238.91
2019-01-25T20:23:44.290Z,98234.66
2019-01-25T20:26:49.067Z,98237.13
2019-01-25T20:29:53.801Z,98238.90
2019-01-25T20:32:59.081Z,98237.53
2019-01-25T20:36:03.585Z,98222.05
2019-01-25T20:39:08.862Z,98218.48
2019-01-25T20:42:13.903Z,98222.45
2019-01-25T20:45:27.285Z,98214.83
2019-01-25T20:48:33.432Z,98229.41
2019-01-25T20:51:38.134Z,98228.91
2019-01-25T20:54:42.551Z,98219.52
2019-01-25T20:57:47.237Z,98212.34
2019-01-25T21:00:52.032Z,98208.88
2019-01-25T21:03:56.463Z,98204.19
2019-01-25T21:07:00.965Z,98198.39
2019-01-25T21:10:10.254Z,98200.70
2019-01-25T21:13:14.691Z,98196.16
2019-01-25T21:16:19.162Z,98195.14
2019-01-25T21:19:23.919Z,98184.61
2019-01-25T21:22:28.661Z,98186.88
2019-01-25T21:25:33.427Z,98183.66
2019-01-25T21:28:37.861Z,98176.84
2019-01-25T21:31:42.566Z,98168.77
2019-01-25T21:34:47.273Z,98166.27
2019-01-25T21:37:51.757Z,98166.80
2019-01-25T21:40:56.181Z,98169.14
2019-01-25T21:44:00.947Z,98161.30
2019-01-25T21:47:05.888Z,98157.11
2019-01-25T21:50:28.615Z,98158.23
2019-01-25T21:53:33.049Z,98166.00
2019-01-25T21:56:37.796Z,98157.65
2019-01-25T21:59:42.323Z,98155.93
2019-01-25T22:02:46.781Z,98150.14
2019-01-25T22:05:51.205Z,98151.05
2019-01-25T22:08:55.966Z,98147.80
2019-01-25T22:12:00.417Z,98145.76
2019-01-25T22:15:07.900Z,98140.11
2019-01-25T22:18:12.873Z,98135.77
2019-01-25T22:21:17.303Z,98130.12
2019-01-25T22:24:22.138Z,98122.92
2019-01-25T22:27:26.849Z,98123.80
2019-01-25T22:30:31.352Z,98128.94
2019-01-25T22:33:36.107Z,98120.56
2019-01-25T22:36:40.843Z,98119.23
2019-01-25T22:39:45.292Z,98111.00
2019-01-25T22:42:50.001Z,98109.03
2019-01-25T22:45:58.730Z,98103.83
2019-01-25T22:49:00.647Z,98112.18
2019-01-25T22:52:05.345Z,98112.69
2019-01-25T22:55:14.431Z,98113.22
2019-01-25T22:58:19.167Z,98103.47
2019-01-25T23:01:25.607Z,98097.28
2019-01-25T23:04:34.748Z,98093.63
2019-01-25T23:07:39.197Z,98093.53
2019-01-25T23:10:43.927Z,98086.20
2019-01-25T23:13:48.376Z,98089.58
2019-01-25T23:16:52.977Z,98079.37
2019-01-25T23:19:57.414Z,98080.92
2019-01-25T23:23:01.838Z,98085.98
2019-01-25T23:26:06.281Z,98077.96
2019-01-25T23:29:10.714Z,98072.17
2019-01-25T23:32:15.144Z,98053.45
2019-01-25T23:35:19.576Z,98049.77
2019-01-25T23:38:24.007Z,98053.91
2019-01-25T23:41:28.447Z,98049.94
2019-01-25T23:44:33.204Z,98042.52
2019-01-25T23:47:37.945Z,98053.45
2019-01-25T23:50:42.372Z,98038.04
2019-01-25T23:53:46.820Z,98049.80
2019-01-25T23:56:51.615Z,98056.32
2019-01-25T23:59:56.342Z,98050.44
